Time;durP1;ratioP1;P1;durP2;ratioP2;P2;SDS_P1;SDS_P2;PMS_P1;PMS_P2;Temp;Humidity;BMP_temperature;BMP_pressure;BME280_temperature;BME280_humidity;BME280_pressure;Samples;Min_cycle;Max_cycle;Signal;HPM_P1;HPM_P2
2022/11/06 00:01:05;;;;;;;8.97;3.63;;;8.00;99.90;;;;;;5074013;28;20428;-47
2022/11/06 00:03:37;;;;;;;7.27;3.37;;;7.90;99.90;;;;;;5071998;28;20611;-48
2022/11/06 00:08:50;;;;;;;7.60;3.63;;;7.90;99.90;;;;;;5042196;28;20486;-47
2022/11/06 00:11:17;;;;;;;5.40;4.17;;;7.90;99.90;;;;;;5046296;28;20616;-43
2022/11/06 00:13:46;;;;;;;5.47;3.83;;;7.90;99.90;;;;;;5047003;28;20432;-45
2022/11/06 00:16:15;;;;;;;4.60;4.07;;;7.80;99.90;;;;;;5053667;28;20440;-52
2022/11/06 00:18:45;;;;;;;6.70;2.90;;;7.80;99.90;;;;;;5054406;28;20524;-46
2022/11/06 00:21:13;;;;;;;5.87;3.47;;;7.80;99.90;;;;;;5053645;28;20517;-47
2022/11/06 00:23:41;;;;;;;4.93;3.13;;;7.80;99.90;;;;;;5053302;28;20464;-43
2022/11/06 00:26:08;;;;;;;11.53;3.80;;;7.80;99.90;;;;;;5053711;28;20464;-44
2022/11/06 00:28:36;;;;;;;19.43;9.70;;;7.80;99.90;;;;;;5053877;28;20475;-45
2022/11/06 00:31:03;;;;;;;6.73;4.23;;;7.80;99.90;;;;;;5053986;28;20447;-43
2022/11/06 00:33:35;;;;;;;10.80;4.73;;;7.70;99.90;;;;;;5053725;28;20432;-46
2022/11/06 00:36:07;;;;;;;8.70;2.97;;;7.70;99.90;;;;;;5053888;28;20462;-43
2022/11/06 00:38:34;;;;;;;5.77;3.60;;;7.70;99.90;;;;;;5053823;28;20429;-48
2022/11/06 00:41:05;;;;;;;11.47;3.93;;;7.70;99.90;;;;;;5053777;28;20535;-41
2022/11/06 00:43:35;;;;;;;4.40;3.80;;;7.60;99.90;;;;;;5046541;28;20444;-47
2022/11/06 00:46:05;;;;;;;5.87;3.73;;;7.60;99.90;;;;;;5052404;28;20476;-45
2022/11/06 00:48:32;;;;;;;6.20;3.13;;;7.60;99.90;;;;;;5057461;28;20506;-43
2022/11/06 00:51:03;;;;;;;3.73;2.70;;;7.60;99.90;;;;;;5057516;28;20522;-50
2022/11/06 00:53:30;;;;;;;8.40;2.90;;;7.70;99.90;;;;;;5056924;28;20459;-54
2022/11/06 00:56:05;;;;;;;7.47;4.10;;;7.70;99.90;;;;;;5057284;28;20436;-49
2022/11/06 00:58:31;;;;;;;11.70;3.77;;;7.60;99.90;;;;;;5057504;28;20471;-46
2022/11/06 01:01:06;;;;;;;8.07;3.27;;;7.60;99.90;;;;;;5057322;28;20863;-48
2022/11/06 01:03:33;;;;;;;5.70;3.13;;;7.50;99.90;;;;;;5057027;28;20455;-48
2022/11/06 01:06:06;;;;;;;5.00;3.67;;;7.50;99.90;;;;;;5057025;28;20535;-45
2022/11/06 01:08:33;;;;;;;7.50;4.30;;;7.40;99.90;;;;;;5056830;28;20463;-43
2022/11/06 01:11:06;;;;;;;8.83;4.30;;;7.40;99.90;;;;;;5057033;28;20970;-49
2022/11/06 01:13:32;;;;;;;8.40;3.40;;;7.40;99.90;;;;;;5044240;28;20444;-45
2022/11/06 01:15:59;;;;;;;6.93;3.53;;;7.40;99.90;;;;;;5057137;28;21166;-44
2022/11/06 01:18:28;;;;;;;8.37;3.70;;;7.40;99.90;;;;;;5056997;28;20500;-48
2022/11/06 01:20:57;;;;;;;5.20;3.43;;;7.40;99.90;;;;;;5056892;28;20447;-48
2022/11/06 01:23:26;;;;;;;6.33;3.90;;;7.30;99.90;;;;;;5056249;28;20845;-48
2022/11/06 01:25:57;;;;;;;7.07;3.30;;;7.40;99.90;;;;;;5056958;28;20557;-46
2022/11/06 01:28:24;;;;;;;7.17;3.87;;;7.40;99.90;;;;;;5056753;28;20445;-49
2022/11/06 01:30:51;;;;;;;5.37;3.50;;;7.40;99.90;;;;;;5056866;28;20491;-42
2022/11/06 01:33:17;;;;;;;5.47;3.47;;;7.40;99.90;;;;;;5056336;28;20463;-47
2022/11/06 01:35:45;;;;;;;5.40;3.27;;;7.40;99.90;;;;;;5056750;28;20424;-51
2022/11/06 01:38:12;;;;;;;4.20;2.93;;;7.40;99.90;;;;;;5056676;28;20456;-44
2022/11/06 01:40:42;;;;;;;4.43;2.90;;;7.40;99.90;;;;;;5056578;28;20428;-55
2022/11/06 01:43:14;;;;;;;5.10;4.40;;;7.40;99.90;;;;;;5056370;28;20524;-47
2022/11/06 01:45:43;;;;;;;6.10;3.60;;;7.40;99.90;;;;;;5056936;28;20530;-49
2022/11/06 01:48:12;;;;;;;6.30;4.20;;;7.50;99.90;;;;;;5057050;28;20475;-48
2022/11/06 01:50:41;;;;;;;9.63;4.43;;;7.50;99.90;;;;;;5056822;28;20456;-45
2022/11/06 01:53:08;;;;;;;4.90;3.50;;;7.40;99.90;;;;;;5056514;28;20487;-47
2022/11/06 01:55:39;;;;;;;7.27;3.97;;;7.50;99.90;;;;;;5055998;28;20468;-46
2022/11/06 01:58:11;;;;;;;4.87;4.07;;;7.50;99.90;;;;;;5056494;28;20444;-40
2022/11/06 02:00:38;;;;;;;5.33;4.00;;;7.40;99.90;;;;;;5056079;28;20444;-44
2022/11/06 02:03:07;;;;;;;9.27;4.57;;;7.50;99.90;;;;;;5056402;28;20581;-44
2022/11/06 02:05:34;;;;;;;8.13;4.90;;;7.50;99.90;;;;;;5055829;28;20512;-48
2022/11/06 02:08:01;;;;;;;6.97;4.10;;;7.60;99.90;;;;;;5056116;28;20478;-48
2022/11/06 02:10:29;;;;;;;6.03;4.07;;;7.60;99.90;;;;;;5051123;28;20869;-49
2022/11/06 02:13:08;;;;;;;7.67;5.43;;;7.60;99.90;;;;;;5048857;28;20448;-49
2022/11/06 02:15:47;;;;;;;6.40;3.80;;;7.60;99.90;;;;;;5043704;28;20421;-51
2022/11/06 02:18:55;;;;;;;4.23;3.77;;;7.60;99.90;;;;;;5055833;28;20503;-48
2022/11/06 02:21:40;;;;;;;6.40;3.93;;;7.60;99.90;;;;;;4992263;28;20446;-45
2022/11/06 02:24:38;;;;;;;5.90;3.47;;;7.50;99.90;;;;;;4995532;28;20465;-43
2022/11/06 02:27:10;;;;;;;11.80;5.10;;;7.50;99.90;;;;;;5039069;28;20831;-48
2022/11/06 02:29:47;;;;;;;7.90;3.70;;;7.50;99.90;;;;;;5055946;28;20520;-43
2022/11/06 02:32:18;;;;;;;11.47;3.80;;;7.50;99.90;;;;;;5055950;28;20488;-50
2022/11/06 02:34:47;;;;;;;9.20;3.87;;;7.50;99.90;;;;;;5055729;28;20532;-46
2022/11/06 02:37:19;;;;;;;5.53;3.50;;;7.60;99.90;;;;;;5055750;28;20440;-44
2022/11/06 02:39:48;;;;;;;6.77;3.80;;;7.60;99.90;;;;;;5055761;28;20452;-45
2022/11/06 02:42:19;;;;;;;7.40;5.00;;;7.60;99.90;;;;;;5055616;28;20505;-48
2022/11/06 02:44:49;;;;;;;5.50;3.40;;;7.50;99.90;;;;;;5056279;28;20472;-44
2022/11/06 02:47:18;;;;;;;12.43;4.30;;;7.50;99.90;;;;;;5055774;28;20468;-45
2022/11/06 02:49:48;;;;;;;7.60;4.43;;;7.50;99.90;;;;;;5055687;28;20486;-45
2022/11/06 02:52:20;;;;;;;3.63;2.93;;;7.60;99.90;;;;;;5056255;28;20428;-45
2022/11/06 02:54:52;;;;;;;5.13;3.53;;;7.50;99.90;;;;;;5055332;28;20448;-46
2022/11/06 02:57:23;;;;;;;7.80;4.30;;;7.60;99.90;;;;;;5043038;28;20420;-42
2022/11/06 02:59:54;;;;;;;4.90;3.27;;;7.70;99.90;;;;;;5055272;28;20454;-43
2022/11/06 03:02:26;;;;;;;6.50;3.90;;;7.70;99.90;;;;;;5054803;28;20476;-48
2022/11/06 03:04:58;;;;;;;15.07;4.90;;;7.70;99.90;;;;;;5055324;28;20496;-43
2022/11/06 03:07:31;;;;;;;10.50;4.00;;;7.70;99.90;;;;;;5054386;28;20465;-48
2022/11/06 03:10:00;;;;;;;7.90;4.10;;;7.70;99.90;;;;;;5055138;28;20455;-45
2022/11/06 03:12:32;;;;;;;4.47;3.20;;;7.70;99.90;;;;;;5054599;28;20432;-50
2022/11/06 03:15:03;;;;;;;6.40;4.17;;;7.70;99.90;;;;;;5055501;28;20528;-48
2022/11/06 03:17:40;;;;;;;11.30;4.70;;;7.70;99.90;;;;;;5054671;28;20441;-51
2022/11/06 03:20:26;;;;;;;7.80;3.67;;;7.70;99.90;;;;;;5054903;28;20479;-45
2022/11/06 03:22:57;;;;;;;6.07;3.70;;;7.60;99.90;;;;;;5054872;28;20428;-47
2022/11/06 03:25:28;;;;;;;9.17;4.57;;;7.60;99.90;;;;;;5054577;28;20435;-51
2022/11/06 03:28:03;;;;;;;4.50;4.10;;;7.60;99.90;;;;;;5054324;28;20448;-49
2022/11/06 03:30:31;;;;;;;10.50;4.00;;;7.60;99.90;;;;;;5054976;28;20419;-45
2022/11/06 03:33:02;;;;;;;5.17;3.43;;;7.60;99.90;;;;;;5054391;28;20472;-48
2022/11/06 03:35:34;;;;;;;9.73;4.43;;;7.50;99.90;;;;;;5054726;28;20448;-50
2022/11/06 03:38:05;;;;;;;19.13;4.37;;;7.50;99.90;;;;;;5054109;28;20432;-46
2022/11/06 03:40:37;;;;;;;5.80;3.37;;;7.50;99.90;;;;;;5055081;28;20440;-44
2022/11/06 03:43:07;;;;;;;5.83;4.13;;;7.50;99.90;;;;;;5054947;28;20425;-50
2022/11/06 03:45:36;;;;;;;7.40;5.33;;;7.40;99.90;;;;;;5054177;28;20472;-49
2022/11/06 03:48:08;;;;;;;7.53;4.13;;;7.40;99.90;;;;;;5049976;28;20448;-46
2022/11/06 03:50:39;;;;;;;8.27;4.50;;;7.40;99.90;;;;;;5047649;28;20460;-42
2022/11/06 03:53:11;;;;;;;12.97;3.63;;;7.40;99.90;;;;;;5054978;28;20436;-54
2022/11/06 03:55:43;;;;;;;6.13;4.40;;;7.40;99.90;;;;;;5043654;28;20516;-47
2022/11/06 03:58:16;;;;;;;7.37;4.00;;;7.30;99.90;;;;;;5051851;28;20483;-45
2022/11/06 04:00:44;;;;;;;5.80;3.40;;;7.30;99.90;;;;;;5044691;28;20455;-47
2022/11/06 04:03:18;;;;;;;7.70;4.90;;;7.30;99.90;;;;;;5054464;28;20462;-48
2022/11/06 04:05:51;;;;;;;7.63;4.47;;;7.20;99.90;;;;;;5054244;28;20502;-46
2022/11/06 04:14:00;;;;;;;6.70;4.73;;;7.20;99.90;;;;;;5054590;28;20430;-50
2022/11/06 04:16:31;;;;;;;6.30;4.17;;;7.10;99.90;;;;;;5054227;28;20431;-44
2022/11/06 04:18:58;;;;;;;9.60;4.33;;;7.10;99.90;;;;;;5055914;28;20444;-45
2022/11/06 04:21:31;;;;;;;5.17;3.90;;;7.10;99.90;;;;;;5053497;28;20479;-45
2022/11/06 04:27:03;;;;;;;6.90;3.93;;;7.10;99.90;;;;;;5058289;28;20475;-45
2022/11/06 04:29:47;;;;;;;8.70;4.67;;;7.00;99.90;;;;;;5058507;28;20432;-48
2022/11/06 04:32:21;;;;;;;10.80;3.80;;;6.90;99.90;;;;;;5058493;28;20452;-45
2022/11/06 04:34:59;;;;;;;8.50;5.57;;;7.00;99.90;;;;;;5047671;28;20478;-43
2022/11/06 04:37:30;;;;;;;7.40;3.53;;;7.00;99.90;;;;;;5058189;28;20480;-48
2022/11/06 04:40:03;;;;;;;6.10;4.13;;;7.00;99.90;;;;;;5057795;28;20464;-45
2022/11/06 04:42:37;;;;;;;7.90;4.70;;;7.00;99.90;;;;;;5058099;28;20463;-54
2022/11/06 04:45:11;;;;;;;5.63;3.77;;;7.00;99.90;;;;;;5057480;28;20444;-53
2022/11/06 04:47:42;;;;;;;5.33;3.30;;;7.00;99.90;;;;;;5058039;28;20486;-46
2022/11/06 04:50:12;;;;;;;6.83;4.33;;;7.00;99.90;;;;;;5058278;28;20508;-49
2022/11/06 04:52:40;;;;;;;8.17;5.73;;;7.00;99.90;;;;;;5058087;28;20570;-46
2022/11/06 04:55:08;;;;;;;7.70;3.97;;;6.90;99.90;;;;;;5058233;28;20439;-40
2022/11/06 04:57:34;;;;;;;5.60;3.80;;;6.90;99.90;;;;;;5057862;28;20462;-44
2022/11/06 05:00:01;;;;;;;5.73;3.77;;;6.90;99.90;;;;;;5057905;28;20447;-49
2022/11/06 05:02:30;;;;;;;7.87;4.27;;;6.90;99.90;;;;;;5057475;28;20536;-50
2022/11/06 05:04:56;;;;;;;6.50;3.93;;;6.90;99.90;;;;;;5057449;28;20464;-46
2022/11/06 05:07:25;;;;;;;9.23;4.73;;;6.90;99.90;;;;;;5058021;28;20546;-45
2022/11/06 05:09:52;;;;;;;8.70;4.47;;;6.90;99.90;;;;;;5057641;28;20490;-45
2022/11/06 05:12:18;;;;;;;5.43;4.13;;;6.80;99.90;;;;;;5057553;28;20507;-42
2022/11/06 05:14:45;;;;;;;5.90;4.53;;;6.90;99.90;;;;;;5057589;28;20507;-42
2022/11/06 05:17:12;;;;;;;4.80;4.30;;;6.80;99.90;;;;;;5057766;28;20452;-45
2022/11/06 05:19:40;;;;;;;5.13;3.53;;;6.80;99.90;;;;;;5057624;28;20433;-43
2022/11/06 05:24:53;;;;;;;13.03;4.70;;;6.80;99.90;;;;;;5057401;28;20718;-44
2022/11/06 05:27:20;;;;;;;6.40;3.73;;;6.80;99.90;;;;;;5057207;28;20490;-44
2022/11/06 05:29:46;;;;;;;6.07;4.60;;;6.80;99.90;;;;;;5056517;28;20444;-45
2022/11/06 05:32:13;;;;;;;6.50;4.60;;;6.80;99.90;;;;;;5056761;28;20468;-41
2022/11/06 05:34:41;;;;;;;7.33;3.93;;;6.70;99.90;;;;;;5057041;28;20452;-42
2022/11/06 05:37:08;;;;;;;7.90;5.13;;;6.70;99.90;;;;;;5057275;28;20444;-47
2022/11/06 05:39:35;;;;;;;8.27;4.70;;;6.80;99.90;;;;;;5056649;28;20421;-45
2022/11/06 05:42:05;;;;;;;5.50;3.50;;;6.70;99.90;;;;;;5057162;28;20444;-43
2022/11/06 05:44:32;;;;;;;7.20;4.87;;;6.70;99.90;;;;;;5057065;28;20446;-47
2022/11/06 05:46:59;;;;;;;6.43;4.30;;;6.70;99.90;;;;;;5056346;28;20507;-45
2022/11/06 05:49:28;;;;;;;8.93;4.30;;;6.70;99.90;;;;;;5063591;28;20443;-46
2022/11/06 05:51:59;;;;;;;9.27;4.90;;;6.60;99.90;;;;;;5059479;28;20439;-47
2022/11/06 05:54:31;;;;;;;6.83;4.30;;;6.60;99.90;;;;;;5066911;28;20439;-45
2022/11/06 05:56:57;;;;;;;9.10;3.93;;;6.60;99.90;;;;;;5064030;28;20607;-46
2022/11/06 05:59:25;;;;;;;7.93;4.40;;;6.60;99.90;;;;;;5071515;28;20463;-43
2022/11/06 06:01:51;;;;;;;10.60;5.83;;;6.60;99.90;;;;;;5061693;28;20496;-51
2022/11/06 06:04:18;;;;;;;6.13;3.50;;;6.60;99.90;;;;;;5056793;28;20448;-43
2022/11/06 06:06:45;;;;;;;10.20;4.67;;;6.60;99.90;;;;;;5056453;28;20471;-43
2022/11/06 06:09:13;;;;;;;8.90;4.47;;;6.60;99.90;;;;;;5056261;28;20513;-51
2022/11/06 06:11:40;;;;;;;6.07;3.97;;;6.50;99.90;;;;;;5056402;28;20486;-41
2022/11/06 06:14:07;;;;;;;7.23;4.37;;;6.60;99.90;;;;;;5056093;28;20436;-47
2022/11/06 06:16:34;;;;;;;6.20;5.10;;;6.60;99.90;;;;;;5066185;28;20512;-49
2022/11/06 06:19:00;;;;;;;5.57;3.60;;;6.60;99.90;;;;;;5066177;28;20435;-44
2022/11/06 06:21:27;;;;;;;7.57;4.07;;;6.60;99.90;;;;;;5064892;28;20424;-50
2022/11/06 06:23:55;;;;;;;8.83;4.60;;;6.60;99.90;;;;;;5054261;28;20468;-46
2022/11/06 06:26:23;;;;;;;10.00;5.43;;;6.60;99.90;;;;;;5066594;28;20526;-49
2022/11/06 06:28:49;;;;;;;9.50;5.03;;;6.70;99.90;;;;;;5067426;28;20505;-46
2022/11/06 06:31:16;;;;;;;5.27;3.80;;;6.60;99.90;;;;;;5068790;28;20455;-42
2022/11/06 06:33:43;;;;;;;8.97;4.90;;;6.60;99.90;;;;;;5063552;28;20455;-47
2022/11/06 06:36:10;;;;;;;9.73;5.60;;;6.60;99.90;;;;;;5055751;28;20479;-44
2022/11/06 06:38:37;;;;;;;6.07;4.30;;;6.60;99.90;;;;;;5056095;28;20455;-42
2022/11/06 06:41:07;;;;;;;8.87;4.23;;;6.60;99.90;;;;;;5056303;28;20443;-46
2022/11/06 06:43:36;;;;;;;5.37;4.00;;;6.60;99.90;;;;;;5058374;28;21322;-44
2022/11/06 06:46:05;;;;;;;9.33;6.00;;;6.60;99.90;;;;;;5070428;28;20531;-50
2022/11/06 06:48:32;;;;;;;5.87;4.10;;;6.60;99.90;;;;;;5063679;28;20459;-48
2022/11/06 06:51:02;;;;;;;6.80;4.43;;;6.60;99.90;;;;;;5069098;28;20454;-51
2022/11/06 06:53:29;;;;;;;6.93;4.90;;;6.60;99.90;;;;;;5060275;28;20456;-48
2022/11/06 06:55:58;;;;;;;7.60;4.80;;;6.60;99.90;;;;;;5058990;28;20433;-45
2022/11/06 06:58:25;;;;;;;9.97;5.50;;;6.70;99.90;;;;;;5069178;28;20421;-51
2022/11/06 07:00:54;;;;;;;6.67;4.43;;;6.70;99.90;;;;;;5066965;28;20462;-44
2022/11/06 07:03:21;;;;;;;8.77;5.10;;;6.70;99.90;;;;;;5070947;28;20449;-47
2022/11/06 07:05:48;;;;;;;8.23;5.27;;;6.60;99.90;;;;;;5059654;28;20527;-46
2022/11/06 07:08:15;;;;;;;7.83;5.00;;;6.70;99.90;;;;;;5069758;28;20536;-43
2022/11/06 07:10:42;;;;;;;6.60;4.20;;;6.70;99.90;;;;;;5064947;28;20502;-49
2022/11/06 07:13:10;;;;;;;8.83;4.37;;;6.70;99.90;;;;;;5075259;28;20478;-49
2022/11/06 07:15:37;;;;;;;6.13;4.27;;;6.80;99.90;;;;;;5058667;28;20492;-46
2022/11/06 07:18:06;;;;;;;5.30;4.50;;;6.80;99.90;;;;;;5071096;28;20461;-49
2022/11/06 07:20:34;;;;;;;7.30;4.70;;;6.90;99.90;;;;;;5063291;28;20446;-48
2022/11/06 07:23:06;;;;;;;8.27;4.40;;;6.90;99.90;;;;;;5062533;28;20488;-42
2022/11/06 07:25:33;;;;;;;10.47;5.50;;;7.00;99.90;;;;;;5071606;28;20440;-46
2022/11/06 07:28:02;;;;;;;9.63;5.73;;;7.00;99.90;;;;;;5058113;28;20463;-53
2022/11/06 07:30:29;;;;;;;6.30;4.43;;;7.10;99.90;;;;;;5067154;28;20502;-46
2022/11/06 07:32:55;;;;;;;5.50;4.20;;;7.10;99.90;;;;;;5054803;28;20447;-47
2022/11/06 07:35:23;;;;;;;13.90;6.57;;;7.20;99.90;;;;;;5054263;28;20505;-45
2022/11/06 07:37:50;;;;;;;13.10;5.97;;;7.20;99.90;;;;;;5055081;28;20448;-44
2022/11/06 07:40:17;;;;;;;10.90;6.77;;;7.20;99.90;;;;;;5054771;28;20455;-48
2022/11/06 07:42:44;;;;;;;9.50;5.10;;;7.20;99.90;;;;;;5055001;28;20478;-42
2022/11/06 07:45:11;;;;;;;8.37;6.60;;;7.30;99.90;;;;;;5054873;28;20433;-48
2022/11/06 07:47:40;;;;;;;6.37;4.60;;;7.30;99.90;;;;;;5054830;28;20476;-49
2022/11/06 07:50:07;;;;;;;8.87;5.97;;;7.40;99.90;;;;;;5054392;28;20540;-44
2022/11/06 07:52:35;;;;;;;7.67;5.07;;;7.40;99.90;;;;;;5054571;28;20452;-42
2022/11/06 07:55:02;;;;;;;8.80;5.30;;;7.50;99.90;;;;;;5057043;28;20459;-54
2022/11/06 07:57:29;;;;;;;10.60;4.90;;;7.50;99.90;;;;;;5059091;28;20444;-45
2022/11/06 07:59:56;;;;;;;8.97;4.63;;;7.50;99.90;;;;;;5058996;28;20475;-44
2022/11/06 08:02:23;;;;;;;6.20;4.67;;;7.50;99.90;;;;;;5058898;28;20431;-48
2022/11/06 08:04:50;;;;;;;9.27;5.40;;;7.50;99.90;;;;;;5058420;28;20454;-43
2022/11/06 08:07:16;;;;;;;6.80;4.97;;;7.50;99.90;;;;;;5058400;28;20498;-47
2022/11/06 08:09:44;;;;;;;8.87;4.90;;;7.60;99.90;;;;;;5058715;28;20443;-40
2022/11/06 08:12:13;;;;;;;7.53;4.60;;;7.60;99.90;;;;;;5058558;28;20938;-43
2022/11/06 08:14:45;;;;;;;7.13;4.73;;;7.70;99.90;;;;;;5058983;28;20813;-41
2022/11/06 08:17:12;;;;;;;7.33;5.77;;;7.80;99.90;;;;;;5058292;28;20499;-43
2022/11/06 08:19:39;;;;;;;8.00;4.20;;;7.90;99.90;;;;;;5058065;28;21113;-52
2022/11/06 08:22:06;;;;;;;17.20;5.70;;;7.80;99.90;;;;;;5058359;28;20447;-48
2022/11/06 08:24:32;;;;;;;9.93;4.77;;;7.90;99.90;;;;;;5057879;28;20454;-48
2022/11/06 08:27:01;;;;;;;8.60;4.97;;;8.00;99.90;;;;;;5057635;28;20495;-48
2022/11/06 08:29:28;;;;;;;7.60;4.60;;;8.10;99.90;;;;;;5059276;28;20447;-49
2022/11/06 08:32:02;;;;;;;6.17;4.50;;;8.20;99.90;;;;;;5058925;28;20456;-45
2022/11/06 08:34:28;;;;;;;9.33;5.87;;;8.20;99.90;;;;;;5059005;28;20429;-47
2022/11/06 08:36:55;;;;;;;6.60;4.07;;;8.30;99.90;;;;;;5058984;28;20452;-41
2022/11/06 08:39:22;;;;;;;7.10;4.73;;;8.40;99.90;;;;;;5058726;28;20463;-50
2022/11/06 08:41:48;;;;;;;9.13;4.90;;;8.40;99.90;;;;;;5058869;28;20436;-45
2022/11/06 08:44:17;;;;;;;7.30;5.07;;;8.50;99.90;;;;;;5058110;28;20448;-47
2022/11/06 08:46:44;;;;;;;9.00;4.60;;;8.60;99.90;;;;;;5058752;28;20494;-46
2022/11/06 08:49:11;;;;;;;12.90;4.80;;;8.70;99.90;;;;;;5058629;28;20432;-44
2022/11/06 08:51:39;;;;;;;11.17;5.20;;;8.70;99.90;;;;;;5058178;28;20454;-51
2022/11/06 08:54:06;;;;;;;8.90;5.20;;;8.80;99.90;;;;;;5058521;28;20454;-44
2022/11/06 08:56:33;;;;;;;11.13;5.30;;;8.90;99.90;;;;;;5049843;28;20558;-43
2022/11/06 08:59:00;;;;;;;9.30;5.17;;;8.90;99.90;;;;;;5057971;28;20436;-50
2022/11/06 09:01:28;;;;;;;6.80;4.80;;;9.00;99.90;;;;;;5057591;28;20504;-46
2022/11/06 09:03:54;;;;;;;7.60;4.90;;;9.10;99.90;;;;;;5058546;28;20858;-46
2022/11/06 09:06:21;;;;;;;10.57;5.97;;;9.20;99.90;;;;;;5056776;28;20446;-46
2022/11/06 09:08:48;;;;;;;12.00;6.17;;;9.30;99.90;;;;;;5058092;28;20484;-49
2022/11/06 09:11:15;;;;;;;8.37;5.23;;;9.40;99.90;;;;;;5058116;28;20471;-50
2022/11/06 09:13:41;;;;;;;8.50;4.60;;;9.60;99.90;;;;;;5058158;28;20569;-46
2022/11/06 09:16:13;;;;;;;11.50;4.33;;;9.70;99.90;;;;;;5058252;28;20450;-46
2022/11/06 09:18:44;;;;;;;6.13;3.90;;;9.90;99.90;;;;;;5058333;28;20460;-42
2022/11/06 09:21:13;;;;;;;6.93;4.90;;;10.00;99.90;;;;;;5058552;28;20458;-48
2022/11/06 09:23:40;;;;;;;6.13;3.87;;;10.50;99.90;;;;;;5057368;28;20440;-49
2022/11/06 09:26:06;;;;;;;7.90;4.13;;;11.70;99.90;;;;;;5057612;28;20460;-46
2022/11/06 09:28:33;;;;;;;7.57;4.00;;;13.00;99.90;;;;;;5057473;28;20478;-50
2022/11/06 09:31:01;;;;;;;6.03;3.77;;;14.20;99.90;;;;;;5057727;28;20444;-50
2022/11/06 09:33:28;;;;;;;6.97;4.07;;;15.40;99.90;;;;;;5057271;28;20475;-51
2022/11/06 09:35:56;;;;;;;8.00;3.57;;;16.20;99.90;;;;;;5057317;28;20509;-46
2022/11/06 09:38:23;;;;;;;6.40;4.93;;;16.80;99.90;;;;;;5057723;28;20444;-52
2022/11/06 09:40:53;;;;;;;6.20;4.20;;;17.10;99.90;;;;;;5057355;28;20456;-44
2022/11/06 09:43:37;;;;;;;3.67;3.27;;;17.40;99.90;;;;;;5057334;28;20468;-44
2022/11/06 09:46:18;;;;;;;4.03;3.63;;;17.40;99.90;;;;;;5057642;28;20531;-46
2022/11/06 09:48:49;;;;;;;6.40;4.20;;;17.50;99.90;;;;;;5056830;28;20470;-51
2022/11/06 09:51:23;;;;;;;4.27;3.20;;;17.50;99.90;;;;;;5057250;28;20429;-47
2022/11/06 09:53:55;;;;;;;5.53;3.77;;;17.90;99.90;;;;;;5057027;28;20432;-51
2022/11/06 09:56:27;;;;;;;4.70;3.93;;;18.30;99.90;;;;;;5057169;28;20416;-48
2022/11/06 09:58:58;;;;;;;7.00;3.70;;;18.40;99.90;;;;;;5056917;28;20476;-50
2022/11/06 10:01:28;;;;;;;5.20;3.33;;;18.30;99.90;;;;;;5057046;28;20434;-49
2022/11/06 10:03:58;;;;;;;8.73;5.77;;;18.00;99.90;;;;;;5056656;28;20476;-49
2022/11/06 10:06:28;;;;;;;5.43;3.17;;;17.90;99.90;;;;;;5056766;28;20432;-50
2022/11/06 10:08:57;;;;;;;5.30;3.53;;;18.10;99.90;;;;;;5056721;28;20472;-49
2022/11/06 10:11:47;;;;;;;11.33;3.90;;;17.90;99.90;;;;;;5056548;28;20428;-43
2022/11/06 10:14:24;;;;;;;5.00;3.63;;;18.20;99.90;;;;;;5056518;28;20488;-52
2022/11/06 10:16:59;;;;;;;4.50;3.33;;;18.40;99.90;;;;;;5041313;28;20529;-45
2022/11/06 10:19:37;;;;;;;4.60;3.63;;;18.30;99.10;;;;;;5057261;28;20487;-47
2022/11/06 10:22:14;;;;;;;5.33;3.27;;;18.10;99.30;;;;;;5056824;28;20488;-46
2022/11/06 10:24:45;;;;;;;5.70;3.60;;;17.90;99.90;;;;;;5057217;28;20435;-44
2022/11/06 10:27:16;;;;;;;7.80;4.70;;;18.10;99.40;;;;;;5056753;28;20429;-46
2022/11/06 10:30:06;;;;;;;10.87;5.43;;;18.00;99.50;;;;;;5056067;28;20460;-47
2022/11/06 10:32:57;;;;;;;19.20;11.53;;;18.10;99.30;;;;;;5056121;28;20424;-49
2022/11/06 10:35:30;;;;;;;5.83;4.73;;;17.90;99.50;;;;;;5056194;28;20465;-50
2022/11/06 10:38:05;;;;;;;9.17;4.50;;;17.60;99.90;;;;;;5056692;28;20452;-43
2022/11/06 10:40:35;;;;;;;6.17;4.20;;;17.40;99.90;;;;;;5056598;28;20524;-50
2022/11/06 10:43:14;;;;;;;5.10;4.03;;;17.10;99.90;;;;;;5056267;28;20436;-50
2022/11/06 10:45:45;;;;;;;5.20;3.70;;;17.00;99.90;;;;;;5056360;28;20424;-51
2022/11/06 10:48:20;;;;;;;9.33;4.80;;;16.90;99.90;;;;;;5056464;28;20464;-46
2022/11/06 10:50:56;;;;;;;7.20;3.43;;;16.40;99.90;;;;;;5056042;28;20424;-47
2022/11/06 10:53:34;;;;;;;6.20;3.87;;;15.90;99.90;;;;;;5055977;28;20467;-51
2022/11/06 10:56:20;;;;;;;5.20;3.67;;;15.30;99.90;;;;;;5055888;28;20439;-46
2022/11/06 10:58:47;;;;;;;6.33;4.50;;;14.70;99.90;;;;;;5048783;28;20487;-46
2022/11/06 11:01:14;;;;;;;8.60;4.17;;;14.30;99.90;;;;;;5055668;28;20424;-46
2022/11/06 11:03:43;;;;;;;5.13;3.33;;;13.90;99.90;;;;;;5052777;28;20527;-45
2022/11/06 11:06:10;;;;;;;9.00;4.30;;;13.60;99.90;;;;;;5045484;28;21000;-46
2022/11/06 11:08:43;;;;;;;6.67;3.93;;;13.50;99.90;;;;;;5055044;28;20490;-47
2022/11/06 11:11:21;;;;;;;8.10;4.10;;;13.30;99.90;;;;;;5055450;28;20431;-50
2022/11/06 11:13:50;;;;;;;8.43;4.30;;;13.20;99.90;;;;;;5055210;28;20424;-45
2022/11/06 11:16:19;;;;;;;5.23;3.50;;;13.10;99.90;;;;;;5055642;28;20440;-41
2022/11/06 11:18:46;;;;;;;9.47;4.60;;;13.00;99.90;;;;;;5055292;28;20498;-44
2022/11/06 11:21:22;;;;;;;5.57;3.53;;;12.90;99.90;;;;;;5050443;28;20503;-48
2022/11/06 11:24:06;;;;;;;4.07;2.77;;;12.80;99.90;;;;;;5047760;28;20455;-55
2022/11/06 11:26:34;;;;;;;4.10;3.10;;;12.80;99.90;;;;;;5042777;28;20444;-47
2022/11/06 11:29:11;;;;;;;5.43;3.27;;;12.70;99.90;;;;;;5054162;28;20486;-47
2022/11/06 11:31:38;;;;;;;4.70;3.30;;;12.60;99.90;;;;;;5055246;28;20500;-43
2022/11/06 11:34:15;;;;;;;3.83;2.70;;;12.60;99.90;;;;;;5055454;28;20440;-46
2022/11/06 11:36:52;;;;;;;4.23;3.47;;;12.50;99.90;;;;;;5055166;28;20515;-50
2022/11/06 11:39:24;;;;;;;3.30;2.60;;;12.50;99.90;;;;;;5052642;28;20488;-47
2022/11/06 11:41:51;;;;;;;7.43;4.20;;;12.50;99.90;;;;;;5045568;28;20440;-48
2022/11/06 11:44:19;;;;;;;6.73;3.80;;;12.50;99.90;;;;;;5054580;28;20822;-43
2022/11/06 11:46:51;;;;;;;4.97;3.03;;;12.50;99.90;;;;;;5054877;28;20500;-46
2022/11/06 11:49:29;;;;;;;5.57;4.20;;;12.50;99.90;;;;;;5054463;28;20480;-43
2022/11/06 11:51:57;;;;;;;9.40;3.63;;;12.50;99.90;;;;;;5054607;28;20479;-46
2022/11/06 11:54:27;;;;;;;8.00;4.70;;;12.60;99.90;;;;;;5054157;28;20460;-46
2022/11/06 11:56:56;;;;;;;6.50;3.50;;;12.60;99.90;;;;;;5055017;28;20429;-45
2022/11/06 11:59:26;;;;;;;4.53;2.67;;;12.60;99.90;;;;;;5055585;28;20436;-47
2022/11/06 12:01:55;;;;;;;4.30;3.23;;;12.60;99.90;;;;;;5055933;28;20468;-49
2022/11/06 12:04:25;;;;;;;11.17;3.27;;;12.60;99.90;;;;;;5054945;28;20440;-46
2022/11/06 12:06:59;;;;;;;4.10;2.97;;;12.60;99.90;;;;;;5054576;28;20466;-48
2022/11/06 12:09:33;;;;;;;6.13;3.87;;;12.60;99.90;;;;;;5055001;28;20505;-46
2022/11/06 12:12:01;;;;;;;10.23;3.40;;;12.60;99.90;;;;;;5054954;28;20451;-49
2022/11/06 12:14:31;;;;;;;4.77;3.20;;;12.70;99.90;;;;;;5054957;28;20452;-47
2022/11/06 12:17:03;;;;;;;5.03;3.33;;;12.60;99.90;;;;;;5055309;28;20469;-44
2022/11/06 12:19:34;;;;;;;6.60;3.90;;;12.50;99.90;;;;;;5041821;28;20460;-48
2022/11/06 12:22:06;;;;;;;8.90;2.90;;;12.40;99.90;;;;;;5055346;28;20515;-44
2022/11/06 12:24:41;;;;;;;3.97;3.10;;;12.40;99.90;;;;;;5055771;28;20488;-46
2022/11/06 12:27:13;;;;;;;6.63;3.53;;;12.40;99.90;;;;;;5055284;28;20444;-49
2022/11/06 12:29:47;;;;;;;3.40;3.10;;;12.40;99.90;;;;;;5054931;28;20491;-46
2022/11/06 12:32:23;;;;;;;4.27;2.53;;;12.50;99.90;;;;;;5054449;28;20479;-44
2022/11/06 12:34:58;;;;;;;8.43;3.30;;;12.60;99.90;;;;;;5048922;28;20432;-45
2022/11/06 12:37:35;;;;;;;9.23;3.00;;;12.70;99.90;;;;;;5048320;28;20468;-51
2022/11/06 12:40:16;;;;;;;5.30;3.50;;;12.70;99.90;;;;;;5056226;28;20500;-44
2022/11/06 12:42:53;;;;;;;9.33;2.90;;;12.70;99.90;;;;;;5058488;28;20432;-43
2022/11/06 12:45:26;;;;;;;4.57;2.97;;;12.70;99.90;;;;;;5058417;28;20430;-46
2022/11/06 12:48:00;;;;;;;4.53;3.10;;;12.70;99.90;;;;;;5058429;28;20453;-45
2022/11/06 12:50:41;;;;;;;5.47;3.30;;;12.70;99.90;;;;;;5057813;28;20496;-45
2022/11/06 12:53:32;;;;;;;3.67;2.90;;;12.60;99.90;;;;;;5058590;28;20484;-45
2022/11/06 12:56:10;;;;;;;3.53;2.47;;;12.60;99.90;;;;;;5058516;28;20508;-44
2022/11/06 12:58:58;;;;;;;4.93;2.80;;;12.70;99.90;;;;;;5058103;28;20424;-45
2022/11/06 13:01:34;;;;;;;7.30;3.57;;;12.80;99.90;;;;;;5058189;28;20481;-45
2022/11/06 13:04:18;;;;;;;6.93;2.57;;;12.70;99.90;;;;;;5044812;28;20447;-46
2022/11/06 13:07:18;;;;;;;4.87;3.40;;;12.70;99.90;;;;;;5057953;28;20428;-51
2022/11/06 13:09:56;;;;;;;4.50;2.73;;;12.70;99.90;;;;;;5057655;28;20490;-45
2022/11/06 13:12:32;;;;;;;4.27;2.60;;;12.70;99.90;;;;;;5057978;28;20477;-46
2022/11/06 13:15:11;;;;;;;7.73;5.70;;;12.60;99.90;;;;;;5057015;28;20486;-47
2022/11/06 13:17:44;;;;;;;5.30;3.30;;;12.50;99.90;;;;;;5057442;28;20464;-42
2022/11/06 13:20:21;;;;;;;6.30;3.00;;;12.50;99.90;;;;;;5057552;28;20487;-43
2022/11/06 13:22:53;;;;;;;7.90;2.90;;;12.50;99.90;;;;;;5057702;28;20463;-46
2022/11/06 13:25:27;;;;;;;8.03;3.77;;;12.50;99.90;;;;;;5057495;28;20429;-43